Ridgway, CO

11:14 PM MST on February 27, 2015 (GMT -0700)
Elk Meadows | Change Station
CLOSE
Current Station
Personal Weather Station
Location: Ridgway, CO
Elevation: 8698 ft
Nearby Weather Stations
Active Advisory: Winter Storm Warning

Elev 8698 ft 38.10 °N, 107.76 °W | Updated 20 seconds ago

Overcast
Overcast
19.0 °F
Feels Like 19 °F
N
0.0
Wind Variable Wind from North
Gusts 0.0 mph

Today
High -- | Low -- °F
--% Chance of Precip.
Yesterday
High -- | Low -- °F
Precip. -- in
6:45 AM 6:02 PM
Waxing Gibbous, 75% visible
Pressure 29.83 in
Visibility 10.0 miles
Clouds Clear
Windchill 19 °F
Dew Point 10 °F
Humidity 68%
Rainfall 0.04 in
Snow Depth Not available.
UV 0 out of 12
Pollen 2.10 out of 12
Air Quality Not available.
Flu Activity Not available.
METAR KMTJ 280553Z AUTO 17004KT 10SM CLR M07/M08 A2980 RMK AO2 SLP101 T10671083 10011 21078 50003

More Conditions Fewer Conditions

Pressure 29.83 in
Visibility 10.0 miles
Clouds Clear
Windchill 19 °F
Dew Point 10 °F
Humidity 68%
Rainfall 0.04 in
Snow Depth Not available.
UV 0 out of 12
Pollen 2.10 out of 12
Air Quality Not available.
Flu Activity Not available.
METAR KMTJ 280553Z AUTO 17004KT 10SM CLR M07/M08 A2980 RMK AO2 SLP101 T10671083 10011 21078 50003

More Conditions Fewer Conditions

10-Day Weather Forecast

Almanac

Astronomy

Feb. 27, 2015 Rise Set
Actual Time
Civil Twilight
Nautical Twilight
Astronomical Twilight
Moon
Length of Visible Light
Length of Day
Tomorrow will be .
, % of the Moon is Illuminated

Today's Extremes

State Highs State Lows

Community

WunderPhotos

Upload Photos

1,800,976 photos uploaded!

WunderBlogs® & News

Nearby

Air Quality

  Air Quality AQ Index Pollutant
Not available.

Snow Depth

Station Depth Elevation

Earthquake Activity

City Distance Mag. Time & Date
Minimum magnitude displayed is 2.5.

Coastal Water Temperatures

Place Temperature

Nearby Weather Stations

Winter Storm Warning
Statement as of 9:14 PM MST on February 27, 2015

... Winter Storm Warning remains in effect until 8 PM MST Monday
above 7000 feet...

* locations include the city of... Ridgway.

* Timing... a break in the snow is expected until Saturday morning... when
snow will pick up again. Snow may be heavy at times tonight
through Saturday evening... and then again on Sunday afternoon
through Monday.

* Snow accumulation... 1 to 2 feet through Monday... lesser
amounts on north facing slopes.

* Snow level... the highest accumulations will occur above 7000
feet.

* Winds... southwest 15 to 30 mph with higher gusts Saturday and
Saturday night.

* Visibility... restricted at times in snow and blowing snow.

* Impacts... travel will be impaired into Tuesday... especially
over the Grand Mesa... Dallas Divide... and Utah Highway 191
between Moab and Blanding.

Precautionary/preparedness actions...

A Winter Storm Warning means significant amounts of snow are
expected or occurring. Strong winds and blowing snow are also
possible. This will make travel very hazardous or impossible.